Time;durP1;ratioP1;P1;durP2;ratioP2;P2;SDS_P1;SDS_P2;PMS_P1;PMS_P2;Temp;Humidity;BMP_temperature;BMP_pressure;BME280_temperature;BME280_humidity;BME280_pressure;Samples;Min_cycle;Max_cycle;Signal;HPM_P1;HPM_P2
2021/03/11 00:00:15;;;;;;;27.97;12.17;;;5.30;99.90;;;;;;6160243;23;20208;-79
2021/03/11 00:02:41;;;;;;;27.97;12.67;;;5.30;99.90;;;;;;6165782;23;20208;-81
2021/03/11 00:05:10;;;;;;;30.73;14.07;;;5.30;99.90;;;;;;6160802;23;20153;-82
2021/03/11 00:07:37;;;;;;;26.17;12.57;;;5.30;99.90;;;;;;6162599;23;20160;-81
2021/03/11 00:10:10;;;;;;;26.87;12.23;;;5.40;99.90;;;;;;6159925;23;20157;-80
2021/03/11 00:12:38;;;;;;;29.47;12.37;;;5.30;99.90;;;;;;6159609;23;20636;-80
2021/03/11 00:15:07;;;;;;;27.87;12.07;;;5.30;99.90;;;;;;6159177;23;20186;-81
2021/03/11 00:17:33;;;;;;;27.13;12.37;;;5.30;99.90;;;;;;6163997;23;20186;-80
2021/03/11 00:19:58;;;;;;;24.27;11.80;;;5.30;99.90;;;;;;6162365;23;20605;-81
2021/03/11 00:22:24;;;;;;;25.63;12.37;;;5.30;99.90;;;;;;6163882;23;20621;-81
2021/03/11 00:24:49;;;;;;;23.43;11.80;;;5.30;99.90;;;;;;6163114;23;20150;-80
2021/03/11 00:27:15;;;;;;;25.10;12.23;;;5.30;99.90;;;;;;6162323;23;20208;-82
2021/03/11 00:29:40;;;;;;;24.90;11.60;;;5.20;99.90;;;;;;6161268;23;20284;-80
2021/03/11 00:32:06;;;;;;;22.03;10.60;;;5.30;99.90;;;;;;6163809;23;20215;-81
2021/03/11 00:34:32;;;;;;;20.70;10.30;;;5.30;99.90;;;;;;6165219;23;20534;-81
2021/03/11 00:36:57;;;;;;;19.37;9.30;;;5.30;99.90;;;;;;6163646;23;20359;-80
2021/03/11 00:39:23;;;;;;;20.60;9.47;;;5.30;99.90;;;;;;6160751;23;20153;-81
2021/03/11 00:41:48;;;;;;;21.03;9.47;;;5.20;99.90;;;;;;6167939;23;20228;-80
2021/03/11 00:44:14;;;;;;;21.97;10.93;;;5.30;99.90;;;;;;6166213;23;20622;-80
2021/03/11 00:46:39;;;;;;;23.30;10.30;;;5.20;99.90;;;;;;6163025;23;20648;-80
2021/03/11 00:49:06;;;;;;;18.53;8.90;;;5.30;99.90;;;;;;6164409;23;20456;-80
2021/03/11 00:51:31;;;;;;;21.30;9.73;;;5.30;99.90;;;;;;6163777;23;20177;-81
2021/03/11 00:53:57;;;;;;;21.73;9.97;;;5.30;99.90;;;;;;6161800;23;20240;-81
2021/03/11 00:56:22;;;;;;;16.20;8.03;;;5.30;99.90;;;;;;6166013;23;20163;-80
2021/03/11 00:58:48;;;;;;;20.60;9.27;;;5.30;99.90;;;;;;6160424;23;20597;-81
2021/03/11 01:01:13;;;;;;;19.80;8.93;;;5.20;99.90;;;;;;6158855;23;20208;-80
2021/03/11 01:03:40;;;;;;;21.47;10.43;;;5.30;99.90;;;;;;6159556;23;20228;-82
2021/03/11 01:06:05;;;;;;;18.63;8.73;;;5.20;99.90;;;;;;6159016;23;20236;-80
2021/03/11 01:08:31;;;;;;;16.30;8.57;;;5.20;99.90;;;;;;6162228;23;20159;-80
2021/03/11 01:10:56;;;;;;;20.07;9.10;;;5.20;99.90;;;;;;6171569;23;20745;-81
2021/03/11 01:13:22;;;;;;;16.27;7.93;;;5.20;99.90;;;;;;6171571;23;20182;-81
2021/03/11 01:15:48;;;;;;;19.33;8.73;;;5.20;99.90;;;;;;6169856;23;20182;-81
2021/03/11 01:18:14;;;;;;;16.07;7.73;;;5.20;99.90;;;;;;6167767;23;20160;-82
2021/03/11 01:20:41;;;;;;;18.47;7.73;;;5.10;99.90;;;;;;6171593;23;20591;-80
2021/03/11 01:23:07;;;;;;;15.43;7.20;;;5.10;99.90;;;;;;6167649;23;20621;-81
2021/03/11 01:25:33;;;;;;;17.47;8.10;;;5.10;99.90;;;;;;6167031;23;20157;-79
2021/03/11 01:27:58;;;;;;;16.07;6.80;;;5.10;99.90;;;;;;6159126;23;20626;-81
2021/03/11 01:30:24;;;;;;;14.20;6.80;;;5.10;99.90;;;;;;6159047;23;20156;-82
2021/03/11 01:32:50;;;;;;;18.27;8.10;;;5.10;99.90;;;;;;6160412;23;20180;-80
2021/03/11 01:35:16;;;;;;;12.10;6.63;;;5.10;99.90;;;;;;6165168;23;20616;-82
2021/03/11 01:37:41;;;;;;;13.50;6.53;;;5.10;99.90;;;;;;6170440;23;20160;-81
2021/03/11 01:40:08;;;;;;;16.10;7.57;;;5.10;99.90;;;;;;6165348;23;20658;-80
2021/03/11 01:42:35;;;;;;;14.70;7.43;;;5.10;99.90;;;;;;6166725;23;20189;-81
2021/03/11 01:45:01;;;;;;;15.93;7.27;;;5.10;99.90;;;;;;6169200;23;20666;-81
2021/03/11 01:47:26;;;;;;;15.47;6.60;;;5.10;99.90;;;;;;6168484;23;20153;-80
2021/03/11 01:49:52;;;;;;;18.13;7.60;;;5.10;99.90;;;;;;6171848;23;20225;-80
2021/03/11 01:52:17;;;;;;;13.73;6.83;;;5.10;99.90;;;;;;6167894;23;20256;-81
2021/03/11 01:54:44;;;;;;;14.60;6.67;;;5.00;99.90;;;;;;6173125;23;20172;-80
2021/03/11 01:57:09;;;;;;;14.60;6.93;;;5.00;99.90;;;;;;6167908;23;20514;-81
2021/03/11 01:59:36;;;;;;;15.93;7.13;;;5.00;99.90;;;;;;6164246;23;20161;-80
2021/03/11 02:02:02;;;;;;;13.37;6.13;;;5.00;99.90;;;;;;6161052;23;20223;-81
2021/03/11 02:04:27;;;;;;;13.47;6.33;;;4.90;99.90;;;;;;6162324;23;20209;-80
2021/03/11 02:06:53;;;;;;;12.27;6.03;;;4.90;99.90;;;;;;6164424;23;20164;-82
2021/03/11 02:09:19;;;;;;;14.53;6.27;;;4.90;99.90;;;;;;6162521;23;20157;-82
2021/03/11 02:12:07;;;;;;;15.43;5.77;;;4.90;99.90;;;;;;6160270;23;20173;-81
2021/03/11 02:14:52;;;;;;;11.90;5.50;;;4.90;99.90;;;;;;6159457;23;20261;-80
2021/03/11 02:17:21;;;;;;;13.20;6.30;;;4.90;99.90;;;;;;6161049;23;20628;-82
2021/03/11 02:20:12;;;;;;;13.40;5.97;;;4.90;99.90;;;;;;6163231;23;20163;-82
2021/03/11 02:22:59;;;;;;;12.40;5.20;;;4.90;99.90;;;;;;6164551;23;20271;-80
2021/03/11 02:25:52;;;;;;;12.10;5.73;;;4.90;99.90;;;;;;6171080;23;20489;-80
2021/03/11 02:28:42;;;;;;;13.10;5.87;;;4.90;99.90;;;;;;6172013;23;20157;-80
2021/03/11 02:31:09;;;;;;;12.17;5.50;;;4.90;99.90;;;;;;6176573;23;20180;-81
2021/03/11 02:33:36;;;;;;;12.47;6.00;;;4.90;99.90;;;;;;6178584;23;20149;-81
2021/03/11 02:36:04;;;;;;;11.00;4.90;;;4.90;99.90;;;;;;6180156;23;20157;-80
2021/03/11 02:38:32;;;;;;;14.40;5.90;;;4.80;99.90;;;;;;6176524;23;20133;-80
2021/03/11 02:41:01;;;;;;;12.50;5.67;;;4.90;99.90;;;;;;6177830;23;20185;-81
2021/03/11 02:43:27;;;;;;;16.87;6.67;;;4.90;99.90;;;;;;6176300;23;20184;-82
2021/03/11 02:45:54;;;;;;;15.40;6.40;;;4.90;99.90;;;;;;6174767;23;20144;-81
2021/03/11 02:48:20;;;;;;;15.77;6.60;;;4.90;99.90;;;;;;6175296;23;20158;-80
2021/03/11 02:50:46;;;;;;;12.50;5.77;;;4.90;99.90;;;;;;6170489;23;20158;-80
2021/03/11 02:53:13;;;;;;;14.57;7.53;;;4.90;99.90;;;;;;6169915;23;20200;-80
2021/03/11 02:55:41;;;;;;;14.80;6.90;;;4.90;99.90;;;;;;6164197;23;20177;-81
2021/03/11 02:58:12;;;;;;;16.70;7.17;;;5.00;99.90;;;;;;6159816;23;20168;-82
2021/03/11 03:00:42;;;;;;;14.33;6.97;;;4.90;99.90;;;;;;6156199;23;20240;-79
2021/03/11 03:03:09;;;;;;;16.77;6.53;;;4.90;99.90;;;;;;6154258;23;20170;-80
2021/03/11 03:05:37;;;;;;;14.90;6.47;;;4.90;99.90;;;;;;6156108;23;20417;-82
2021/03/11 03:08:05;;;;;;;14.53;7.17;;;4.90;99.90;;;;;;6159913;23;20162;-81
2021/03/11 03:10:33;;;;;;;15.40;6.13;;;5.00;99.90;;;;;;6160712;23;20494;-82
2021/03/11 03:13:03;;;;;;;13.93;6.70;;;4.90;99.90;;;;;;6166799;23;20165;-80
2021/03/11 03:15:29;;;;;;;16.70;7.43;;;4.90;99.90;;;;;;6171243;23;20165;-81
2021/03/11 03:17:56;;;;;;;14.97;6.70;;;4.90;99.90;;;;;;6161830;23;20163;-81
2021/03/11 03:20:23;;;;;;;14.70;5.90;;;4.90;99.90;;;;;;6167030;23;20161;-82
2021/03/11 03:22:50;;;;;;;16.30;6.40;;;5.00;99.90;;;;;;6165620;23;20335;-80
2021/03/11 03:25:17;;;;;;;17.10;7.50;;;5.10;99.90;;;;;;6165022;23;20182;-80
2021/03/11 03:27:43;;;;;;;16.57;7.23;;;5.10;99.90;;;;;;6171592;23;20171;-81
2021/03/11 03:30:15;;;;;;;16.53;7.33;;;5.10;99.90;;;;;;6169615;23;20168;-80
2021/03/11 03:32:41;;;;;;;17.30;7.77;;;5.10;99.90;;;;;;6165937;23;20187;-80
2021/03/11 03:35:09;;;;;;;18.10;7.90;;;5.10;99.90;;;;;;6170526;23;20173;-81
2021/03/11 03:37:36;;;;;;;15.17;7.50;;;5.10;99.90;;;;;;6171486;23;20183;-82
2021/03/11 03:40:04;;;;;;;15.63;7.40;;;5.20;99.90;;;;;;6174962;23;20158;-81
2021/03/11 03:42:35;;;;;;;15.80;6.60;;;5.20;99.90;;;;;;6176413;23;20237;-82
2021/03/11 03:45:03;;;;;;;16.60;7.37;;;5.20;99.90;;;;;;6179920;23;20154;-80
2021/03/11 03:47:29;;;;;;;14.83;7.57;;;5.20;99.90;;;;;;6178621;23;20160;-81
2021/03/11 03:49:56;;;;;;;17.60;7.20;;;5.20;99.90;;;;;;6180004;23;20190;-80
2021/03/11 03:52:23;;;;;;;15.87;7.70;;;5.20;99.90;;;;;;6180085;23;20160;-81
2021/03/11 03:54:49;;;;;;;15.67;7.43;;;5.30;99.90;;;;;;6184318;23;20145;-80
2021/03/11 03:57:20;;;;;;;17.10;7.43;;;5.20;99.90;;;;;;6184233;23;20206;-83
2021/03/11 03:59:50;;;;;;;15.20;7.47;;;5.20;99.90;;;;;;6183701;23;20143;-80
2021/03/11 04:02:17;;;;;;;15.30;7.23;;;5.30;99.90;;;;;;6183743;23;20190;-82
2021/03/11 04:04:47;;;;;;;15.50;7.13;;;5.30;99.90;;;;;;6183436;23;20137;-80
2021/03/11 04:07:17;;;;;;;14.70;6.97;;;5.40;99.90;;;;;;6183548;23;20134;-82
2021/03/11 04:09:45;;;;;;;15.63;7.60;;;5.30;99.90;;;;;;6180545;23;20187;-81
2021/03/11 04:12:13;;;;;;;16.13;7.60;;;5.40;99.90;;;;;;6174416;23;20176;-81
2021/03/11 04:14:40;;;;;;;15.10;6.93;;;5.40;99.90;;;;;;6179095;23;20173;-80
2021/03/11 04:17:06;;;;;;;14.13;6.27;;;5.40;99.90;;;;;;6174070;23;20255;-80
2021/03/11 04:19:35;;;;;;;13.53;7.20;;;5.40;99.90;;;;;;6168386;23;20164;-81
2021/03/11 04:22:02;;;;;;;15.33;7.33;;;5.40;99.90;;;;;;6175354;23;20177;-81
2021/03/11 04:24:28;;;;;;;14.07;6.60;;;5.50;99.90;;;;;;6174389;23;20153;-81
2021/03/11 04:26:54;;;;;;;14.27;5.80;;;5.40;99.90;;;;;;6178265;23;20167;-81
2021/03/11 04:29:20;;;;;;;11.70;6.37;;;5.50;99.90;;;;;;6175549;23;20570;-81
2021/03/11 04:31:46;;;;;;;16.40;7.03;;;5.50;99.90;;;;;;6179224;23;20175;-82
2021/03/11 04:34:12;;;;;;;15.63;7.27;;;5.50;99.90;;;;;;6181798;23;20172;-81
2021/03/11 04:36:38;;;;;;;12.50;6.50;;;5.60;99.90;;;;;;6183925;23;20153;-81
2021/03/11 04:46:52;;;;;;;13.93;6.87;;;5.60;99.90;;;;;;6125912;23;20176;-81
2021/03/11 04:49:22;;;;;;;13.30;6.13;;;5.60;99.90;;;;;;6188207;23;20163;-82
2021/03/11 04:51:48;;;;;;;12.17;6.23;;;5.60;99.90;;;;;;6188878;23;20183;-82
2021/03/11 04:54:14;;;;;;;13.80;6.07;;;5.60;99.90;;;;;;6189465;23;20152;-82
2021/03/11 04:56:41;;;;;;;12.30;5.77;;;5.70;99.90;;;;;;6213473;23;20168;-82
2021/03/11 04:59:09;;;;;;;12.20;6.00;;;5.70;99.90;;;;;;6186613;23;20179;-81
2021/03/11 05:01:40;;;;;;;13.90;6.13;;;5.70;99.90;;;;;;6214343;23;20192;-81
2021/03/11 05:04:06;;;;;;;10.63;5.83;;;5.70;99.90;;;;;;6214345;23;20185;-82
2021/03/11 05:06:32;;;;;;;12.37;5.97;;;5.70;99.90;;;;;;6214153;23;20148;-82
2021/03/11 05:08:58;;;;;;;12.53;5.57;;;5.70;99.90;;;;;;6214423;23;20144;-82
2021/03/11 05:11:23;;;;;;;11.33;5.73;;;5.70;99.90;;;;;;6213970;23;20194;-80
2021/03/11 05:21:36;;;;;;;13.23;6.23;;;5.80;99.90;;;;;;6244667;22;20208;-83
2021/03/11 05:24:02;;;;;;;10.87;5.63;;;5.80;99.90;;;;;;6219141;22;20199;-83
2021/03/11 06:39:51;;;;;;;14.20;6.93;;;6.30;99.90;;;;;;6169924;23;20164;-83
2021/03/11 06:42:34;;;;;;;15.10;7.53;;;6.30;99.90;;;;;;6185873;23;20193;-85
2021/03/11 06:53:17;;;;;;;14.63;7.43;;;6.40;99.90;;;;;;6174018;23;20188;-84
2021/03/11 08:28:59;;;;;;;18.33;7.63;;;7.60;99.90;;;;;;6162829;23;20191;-86
2021/03/11 09:32:41;;;;;;;10.37;2.90;;;8.40;99.90;;;;;;6178309;23;20174;-87
2021/03/11 09:35:14;;;;;;;10.53;2.80;;;8.40;99.90;;;;;;6185970;23;20126;-87
2021/03/11 09:38:26;;;;;;;9.30;3.00;;;8.40;99.90;;;;;;6186065;23;20121;-86
2021/03/11 09:41:03;;;;;;;8.40;2.60;;;8.40;99.90;;;;;;6185832;23;20113;-87
2021/03/11 09:44:03;;;;;;;9.47;2.60;;;8.40;99.90;;;;;;6184544;23;20149;-87
2021/03/11 09:46:30;;;;;;;10.33;3.20;;;8.30;99.90;;;;;;6160226;23;20130;-87
2021/03/11 09:49:07;;;;;;;9.03;3.33;;;8.30;99.90;;;;;;6185837;23;20124;-87
2021/03/11 09:51:39;;;;;;;9.03;3.50;;;8.40;99.90;;;;;;6186007;23;20144;-87
2021/03/11 09:54:07;;;;;;;10.73;4.53;;;8.40;99.90;;;;;;6185620;23;20128;-86
2021/03/11 09:57:05;;;;;;;13.07;5.10;;;8.60;99.90;;;;;;6185516;23;20122;-87
2021/03/11 09:59:33;;;;;;;12.67;4.97;;;8.70;99.90;;;;;;6185851;23;20117;-87
2021/03/11 10:02:00;;;;;;;12.77;5.37;;;8.80;99.90;;;;;;6185883;23;20126;-87
2021/03/11 10:26:15;;;;;;;14.27;5.40;;;9.30;99.90;;;;;;6176817;23;20176;-86
2021/03/11 10:29:36;;;;;;;15.10;5.53;;;9.30;99.90;;;;;;6102220;23;20115;-87
2021/03/11 11:24:06;;;;;;;23.87;5.30;;;9.20;99.90;;;;;;6177219;23;20236;-87
2021/03/11 12:10:38;;;;;;;36.03;7.47;;;9.00;99.90;;;;;;6182185;23;20192;-87
2021/03/11 12:13:10;;;;;;;25.97;5.50;;;9.00;99.90;;;;;;6187464;23;20121;-87
2021/03/11 12:16:04;;;;;;;25.40;4.60;;;9.10;99.90;;;;;;6186839;23;20121;-87
2021/03/11 12:28:55;;;;;;;24.23;5.20;;;8.70;99.90;;;;;;6185186;23;20252;-87
2021/03/11 12:31:28;;;;;;;22.83;4.00;;;8.70;99.90;;;;;;6186858;23;20140;-87
2021/03/11 12:34:10;;;;;;;18.33;4.40;;;8.70;99.90;;;;;;6163344;23;20125;-87
2021/03/11 12:36:42;;;;;;;15.43;3.00;;;8.70;99.90;;;;;;6184981;23;20125;-87
2021/03/11 13:07:43;;;;;;;16.67;3.03;;;8.50;99.90;;;;;;6172790;23;20187;-87
2021/03/11 13:10:17;;;;;;;17.80;2.77;;;8.40;99.90;;;;;;6186350;23;20153;-88
2021/03/11 13:12:48;;;;;;;16.60;2.57;;;8.40;99.90;;;;;;6181298;23;20177;-87
2021/03/11 13:15:22;;;;;;;18.13;3.10;;;8.40;99.90;;;;;;6157260;23;20137;-86
2021/03/11 13:17:51;;;;;;;18.43;2.50;;;8.30;99.90;;;;;;6156021;23;20130;-87
2021/03/11 13:20:32;;;;;;;18.17;3.07;;;8.30;99.90;;;;;;6181103;23;20130;-88
2021/03/11 13:23:11;;;;;;;16.93;2.70;;;8.20;99.90;;;;;;6157084;23;20146;-87
2021/03/11 13:25:42;;;;;;;15.40;2.40;;;8.20;99.90;;;;;;6156566;23;20130;-87
2021/03/11 13:28:09;;;;;;;11.23;2.20;;;8.20;99.90;;;;;;6181363;23;20118;-87
2021/03/11 13:30:35;;;;;;;15.73;2.40;;;8.20;99.90;;;;;;6156335;23;20118;-86
2021/03/11 13:33:02;;;;;;;14.43;2.90;;;8.20;99.90;;;;;;6179682;23;20142;-87
2021/03/11 13:35:34;;;;;;;17.00;2.90;;;8.20;99.90;;;;;;6156517;23;20122;-87
2021/03/11 13:38:01;;;;;;;13.57;2.93;;;8.20;99.90;;;;;;6157162;23;20121;-87
2021/03/11 13:40:28;;;;;;;13.83;2.50;;;8.20;99.90;;;;;;6156933;23;20122;-86
2021/03/11 13:43:01;;;;;;;10.67;2.70;;;8.20;99.90;;;;;;6156917;23;20142;-87
2021/03/11 13:45:31;;;;;;;10.93;2.13;;;8.10;99.90;;;;;;6156415;23;20140;-86
2021/03/11 13:48:03;;;;;;;14.93;2.70;;;8.10;99.90;;;;;;6156357;23;20133;-87
2021/03/11 13:50:32;;;;;;;13.17;2.00;;;8.10;99.90;;;;;;6180932;23;20120;-87
2021/03/11 13:53:00;;;;;;;13.37;2.53;;;8.10;99.90;;;;;;6156210;23;20133;-87
2021/03/11 13:55:28;;;;;;;14.00;2.20;;;8.10;99.90;;;;;;6181018;23;20138;-88
2021/03/11 13:57:54;;;;;;;16.90;2.33;;;8.10;99.90;;;;;;6156240;23;20126;-87
2021/03/11 14:00:23;;;;;;;13.17;2.43;;;8.10;99.90;;;;;;6156791;23;20165;-87
2021/03/11 14:02:52;;;;;;;11.70;2.77;;;8.00;99.90;;;;;;6180556;23;20164;-87
2021/03/11 14:05:19;;;;;;;13.13;2.57;;;7.90;99.90;;;;;;6156020;23;20164;-87
2021/03/11 15:23:18;;;;;;;10.80;1.40;;;7.20;99.90;;;;;;6185171;23;20405;-86
2021/03/11 15:25:44;;;;;;;9.07;1.83;;;7.20;99.90;;;;;;6160468;23;20138;-88
